createdAt,value
2023-04-28T00:00:45.041Z,4.97
2023-04-28T00:05:49.696Z,4.93
2023-04-28T00:10:54.145Z,5.65
2023-04-28T00:15:56.260Z,4.97
2023-04-28T00:20:57.962Z,5.10
2023-04-28T00:25:59.615Z,5.07
2023-04-28T00:31:01.350Z,5.30
2023-04-28T00:36:03.369Z,5.13
2023-04-28T00:41:06.724Z,5.22
2023-04-28T00:46:08.555Z,5.20
2023-04-28T00:51:10.401Z,5.22
2023-04-28T00:56:12.862Z,5.15
2023-04-28T01:01:16.245Z,5.13
2023-04-28T01:06:18.607Z,5.40
2023-04-28T01:11:20.657Z,10.55
2023-04-28T01:16:43.278Z,5.47
2023-04-28T01:21:44.993Z,5.10
2023-04-28T01:26:56.592Z,5.32
2023-04-28T01:31:58.496Z,4.97
2023-04-28T01:37:00.392Z,5.00
2023-04-28T01:42:02.361Z,5.20
2023-04-28T01:47:04.092Z,5.10
2023-04-28T01:52:06.946Z,5.28
2023-04-28T01:57:08.785Z,5.18
2023-04-28T02:02:11.665Z,4.97
2023-04-28T02:07:13.401Z,5.07
2023-04-28T02:12:18.584Z,5.00
2023-04-28T02:17:20.791Z,5.07
2023-04-28T02:22:23.096Z,5.15
2023-04-28T02:27:24.879Z,5.05
2023-04-28T02:32:26.846Z,5.20
2023-04-28T02:37:28.502Z,5.30
2023-04-28T02:42:30.285Z,5.28
2023-04-28T02:47:31.997Z,4.97
2023-04-28T02:52:33.926Z,5.07
2023-04-28T02:57:35.838Z,5.03
2023-04-28T03:02:38.091Z,5.32
2023-04-28T03:07:39.964Z,4.88
2023-04-28T03:12:41.640Z,4.63
2023-04-28T03:17:43.558Z,5.32
2023-04-28T03:22:46.086Z,5.72
2023-04-28T03:27:48.323Z,5.13
2023-04-28T03:32:50.048Z,5.15
2023-04-28T03:37:54.707Z,5.60
2023-04-28T03:43:00.882Z,5.22
2023-04-28T03:48:08.063Z,5.38
2023-04-28T03:53:09.705Z,5.32
2023-04-28T03:58:11.454Z,5.90
2023-04-28T04:03:13.260Z,5.25
2023-04-28T04:08:15.454Z,5.70
2023-04-28T04:13:19.830Z,5.97
2023-04-28T04:18:22.241Z,5.90
2023-04-28T04:23:53.021Z,5.65
2023-04-28T04:28:54.701Z,5.75
2023-04-28T04:33:56.398Z,5.70
2023-04-28T04:38:59.002Z,5.97
2023-04-28T04:44:01.053Z,6.00
2023-04-28T04:49:10.571Z,5.63
2023-04-28T04:54:12.313Z,5.95
2023-04-28T04:59:17.637Z,6.13
2023-04-28T05:04:30.663Z,7.00
2023-04-28T05:09:33.216Z,6.43
2023-04-28T05:14:35.647Z,6.53
2023-04-28T05:19:37.580Z,6.53
2023-04-28T05:24:39.506Z,6.85
2023-04-28T05:29:41.587Z,6.15
2023-04-28T05:34:44.848Z,7.07
2023-04-28T05:39:47.535Z,6.07
2023-04-28T05:44:49.281Z,7.03
2023-04-28T05:49:51.082Z,6.70
2023-04-28T05:54:52.842Z,7.45
2023-04-28T05:59:54.588Z,7.78
2023-04-28T06:04:57.165Z,7.68
2023-04-28T06:09:59.528Z,8.13
2023-04-28T06:15:01.260Z,7.45
2023-04-28T06:20:03.391Z,7.70
2023-04-28T06:25:06.666Z,8.18
2023-04-28T06:30:27.181Z,8.05
2023-04-28T06:35:29.804Z,8.18
2023-04-28T06:40:31.945Z,7.97
2023-04-28T06:45:35.605Z,7.65
2023-04-28T06:50:37.997Z,8.25
2023-04-28T06:55:50.839Z,8.77
2023-04-28T07:00:52.528Z,8.65
2023-04-28T07:05:54.267Z,9.30
2023-04-28T07:10:56.036Z,7.93
2023-04-28T07:15:57.846Z,8.95
2023-04-28T07:20:59.653Z,8.45
2023-04-28T07:26:01.378Z,8.80
2023-04-28T07:31:03.117Z,8.75
2023-04-28T07:36:06.246Z,8.30
2023-04-28T07:41:10.105Z,9.02
2023-04-28T07:46:13.423Z,8.80
2023-04-28T07:51:15.066Z,9.00
2023-04-28T07:56:17.626Z,8.70
2023-04-28T08:01:19.388Z,8.30
2023-04-28T08:06:21.031Z,9.52
2023-04-28T08:11:22.815Z,9.15
2023-04-28T08:16:24.763Z,9.77
2023-04-28T08:21:27.115Z,9.25
2023-04-28T08:26:29.428Z,10.05
2023-04-28T08:31:31.243Z,10.52
2023-04-28T08:36:33.544Z,11.27
2023-04-28T08:41:41.096Z,11.23
2023-04-28T08:46:44.321Z,11.93
2023-04-28T08:51:51.260Z,12.80
2023-04-28T08:56:53.051Z,14.10
2023-04-28T09:01:54.804Z,14.63
2023-04-28T09:06:56.579Z,13.63
2023-04-28T09:12:00.936Z,13.80
2023-04-28T09:17:09.171Z,14.85
2023-04-28T09:22:25.613Z,14.13
2023-04-28T09:27:29.496Z,14.25
2023-04-28T09:32:31.820Z,14.57
2023-04-28T09:37:37.379Z,14.32
2023-04-28T09:42:44.175Z,16.13
2023-04-28T09:47:51.968Z,14.48
2023-04-28T09:52:57.829Z,14.98
2023-04-28T09:58:06.054Z,15.32
2023-04-28T10:03:09.795Z,15.02
2023-04-28T10:08:13.595Z,15.38
2023-04-28T10:13:19.549Z,15.30
2023-04-28T10:18:23.815Z,15.45
2023-04-28T10:23:25.444Z,15.02
2023-04-28T10:28:27.799Z,19.75
2023-04-28T10:33:29.956Z,18.80
2023-04-28T10:38:32.188Z,19.17
2023-04-28T10:43:39.312Z,19.25
2023-04-28T10:48:47.650Z,20.27
2023-04-28T10:53:50.352Z,20.10
2023-04-28T10:58:54.243Z,21.75
2023-04-28T11:04:01.117Z,20.25
2023-04-28T11:09:15.445Z,18.95
2023-04-28T11:14:18.503Z,17.52
2023-04-28T11:19:22.347Z,12.45
2023-04-28T11:24:29.531Z,4.80
2023-04-28T11:29:38.424Z,3.95
2023-04-28T11:34:40.119Z,3.70
2023-04-28T11:39:42.655Z,4.40
2023-04-28T11:44:52.864Z,4.10
2023-04-28T11:49:54.542Z,3.55
2023-04-28T11:55:00.072Z,2.40
2023-04-28T12:00:19.212Z,1.88
2023-04-28T12:05:22.515Z,1.85
2023-04-28T12:10:24.361Z,2.25
2023-04-28T12:15:40.855Z,2.15
2023-04-28T12:20:43.611Z,3.38
2023-04-28T12:25:46.324Z,3.65
2023-04-28T12:30:49.046Z,4.63
2023-04-28T12:35:50.771Z,4.30
2023-04-28T12:40:52.900Z,4.30
2023-04-28T12:45:58.030Z,4.93
2023-04-28T12:51:00.450Z,4.55
2023-04-28T12:56:02.173Z,5.55
2023-04-28T13:01:04.673Z,6.78
2023-04-28T13:06:06.329Z,6.40
2023-04-28T13:11:21.988Z,7.93
2023-04-28T13:16:29.911Z,8.32
2023-04-28T13:21:31.962Z,8.57
2023-04-28T13:26:33.771Z,9.80
2023-04-28T13:31:35.607Z,10.00
2023-04-28T13:36:37.429Z,9.70
2023-04-28T13:41:39.010Z,8.60
2023-04-28T13:46:40.692Z,9.75
2023-04-28T13:51:42.775Z,9.43
2023-04-28T13:56:44.411Z,8.93
2023-04-28T14:01:46.296Z,9.20
2023-04-28T14:06:50.602Z,7.40
2023-04-28T14:11:52.209Z,8.75
2023-04-28T14:16:53.923Z,7.68
2023-04-28T14:21:55.731Z,7.85
2023-04-28T14:26:57.878Z,7.05
2023-04-28T14:31:59.538Z,7.20
2023-04-28T14:37:01.362Z,7.05
2023-04-28T14:42:03.963Z,7.35
2023-04-28T14:47:05.599Z,6.50
2023-04-28T14:52:07.268Z,7.28
2023-04-28T14:57:08.939Z,6.88
2023-04-28T15:02:12.632Z,7.65
2023-04-28T15:07:14.552Z,7.20
2023-04-28T15:12:16.290Z,7.88
2023-04-28T15:17:20.721Z,8.82
2023-04-28T15:22:22.430Z,7.72
2023-04-28T15:27:24.109Z,7.75
2023-04-28T15:32:26.266Z,7.63
2023-04-28T15:37:44.562Z,7.05
2023-04-28T15:42:49.638Z,6.80
2023-04-28T15:47:51.872Z,8.15
2023-04-28T15:52:53.714Z,7.07
2023-04-28T15:57:56.372Z,8.57
2023-04-28T16:02:58.189Z,8.25
2023-04-28T16:08:00.145Z,11.05
2023-04-28T16:13:02.066Z,9.23
2023-04-28T16:18:07.157Z,9.80
2023-04-28T16:23:13.309Z,10.10
2023-04-28T16:28:15.804Z,10.48
2023-04-28T16:33:20.115Z,11.80
2023-04-28T16:38:23.900Z,10.95
2023-04-28T16:43:25.635Z,13.32
2023-04-28T16:48:27.750Z,14.45
2023-04-28T16:53:29.392Z,16.00
2023-04-28T16:58:31.502Z,14.93
2023-04-28T17:03:34.457Z,17.27
2023-04-28T17:08:36.574Z,20.35
2023-04-28T17:13:38.444Z,19.00
2023-04-28T17:18:41.352Z,18.02
2023-04-28T17:23:43.050Z,21.30
2023-04-28T17:28:44.717Z,22.45
2023-04-28T17:33:48.615Z,24.73
2023-04-28T17:38:51.048Z,24.42
2023-04-28T17:43:52.735Z,24.23
2023-04-28T17:48:54.399Z,24.30
2023-04-28T17:53:56.980Z,20.92
2023-04-28T17:58:58.700Z,22.25
2023-04-28T18:04:00.470Z,23.73
2023-04-28T18:09:02.321Z,24.05
2023-04-28T18:14:05.082Z,22.75
2023-04-28T18:19:06.676Z,22.05
2023-04-28T18:24:08.429Z,26.13
2023-04-28T18:29:10.109Z,24.70
2023-04-28T18:34:11.921Z,23.10
2023-04-28T18:39:13.701Z,23.42
2023-04-28T18:44:15.326Z,27.35
2023-04-28T18:49:18.565Z,25.85
2023-04-28T18:54:20.288Z,26.48
2023-04-28T18:59:21.931Z,29.13
2023-04-28T19:04:23.928Z,26.42
2023-04-28T19:09:25.812Z,24.15
2023-04-28T19:14:27.388Z,23.55
2023-04-28T19:19:28.997Z,23.02
2023-04-28T19:24:30.656Z,20.67
2023-04-28T19:29:32.401Z,20.90
2023-04-28T19:34:34.031Z,21.00
2023-04-28T19:39:36.449Z,18.58
2023-04-28T19:44:38.261Z,19.02
2023-04-28T19:49:42.378Z,18.77
2023-04-28T19:54:45.062Z,17.58
2023-04-28T19:59:50.415Z,17.83
2023-04-28T20:04:52.294Z,13.93
2023-04-28T20:09:56.149Z,14.05
2023-04-28T20:14:57.987Z,12.43
2023-04-28T20:19:59.620Z,11.88
2023-04-28T20:25:05.876Z,15.88
2023-04-28T20:30:08.016Z,11.02
2023-04-28T20:35:09.941Z,10.75
2023-04-28T20:40:12.132Z,9.00
2023-04-28T20:45:13.807Z,9.77
2023-04-28T20:50:15.691Z,8.90
2023-04-28T20:55:17.809Z,7.10
2023-04-28T21:00:19.673Z,8.13
2023-04-28T21:05:22.650Z,8.20
2023-04-28T21:10:24.281Z,8.15
2023-04-28T21:15:26.286Z,9.32
2023-04-28T21:20:28.750Z,9.40
2023-04-28T21:25:30.564Z,9.32
2023-04-28T21:30:34.644Z,9.00
2023-04-28T21:35:36.630Z,9.48
2023-04-28T21:40:38.198Z,9.45
2023-04-28T21:45:39.821Z,9.48
2023-04-28T21:50:41.735Z,12.30
2023-04-28T21:55:44.732Z,11.00
2023-04-28T22:00:47.361Z,12.20
2023-04-28T22:05:49.432Z,13.70
2023-04-28T22:10:51.194Z,14.68
2023-04-28T22:15:53.030Z,13.55
2023-04-28T22:20:54.689Z,12.82
2023-04-28T22:26:01.143Z,11.38
2023-04-28T22:31:03.220Z,14.02
2023-04-28T22:36:05.500Z,14.05
2023-04-28T22:41:07.058Z,15.20
2023-04-28T22:46:08.911Z,13.68
2023-04-28T22:51:10.663Z,14.93
2023-04-28T22:56:12.292Z,14.93
2023-04-28T23:01:14.059Z,13.48
2023-04-28T23:06:15.929Z,14.55
2023-04-28T23:11:19.107Z,12.25
2023-04-28T23:16:20.980Z,13.95
2023-04-28T23:21:22.891Z,12.75
2023-04-28T23:26:24.807Z,13.27
2023-04-28T23:31:26.643Z,13.43
2023-04-28T23:36:28.766Z,14.95
2023-04-28T23:41:30.525Z,14.38
2023-04-28T23:46:32.181Z,14.93
2023-04-28T23:51:33.793Z,16.00
2023-04-28T23:56:35.454Z,15.23
